Time;durP1;ratioP1;P1;durP2;ratioP2;P2;SDS_P1;SDS_P2;PMS_P1;PMS_P2;Temp;Humidity;BMP_temperature;BMP_pressure;BME280_temperature;BME280_humidity;BME280_pressure;Samples;Min_cycle;Max_cycle;Signal;HPM_P1;HPM_P2
2024/04/22 00:57:08;;;;;;;4.82;3.67;;;5.10;1.00;;;;;;5501427;22;20355;-85
2024/04/22 01:04:52;;;;;;;8.07;4.93;;;5.10;1.00;;;;;;5116319;22;20020;-81
2024/04/22 01:07:30;;;;;;;8.07;4.23;;;5.10;1.00;;;;;;5227680;26;39911;-81
2024/04/22 01:10:03;;;;;;;6.57;4.03;;;5.00;1.00;;;;;;5194125;27;39603;-80
2024/04/22 01:12:34;;;;;;;6.03;4.10;;;4.90;1.00;;;;;;5216920;27;37813;-80
2024/04/22 01:15:08;;;;;;;7.40;4.00;;;4.80;1.00;;;;;;5264631;26;41123;-80
2024/04/22 01:17:45;;;;;;;6.70;4.30;;;4.80;1.00;;;;;;5166309;27;47804;-79
2024/04/22 01:20:42;;;;;;;6.03;4.00;;;4.70;1.00;;;;;;5197608;27;38164;-80
2024/04/22 01:23:34;;;;;;;6.10;3.97;;;4.80;1.00;;;;;;5122540;27;37360;-80
2024/04/22 01:26:18;;;;;;;7.97;3.88;;;4.80;1.00;;;;;;5231462;27;38962;-82
2024/04/22 01:28:49;;;;;;;6.00;4.60;;;4.70;1.00;;;;;;5233923;26;39780;-81
2024/04/22 01:31:36;;;;;;;6.63;4.47;;;4.70;1.00;;;;;;5193477;27;37244;-81
2024/04/22 01:34:29;;;;;;;6.33;3.70;;;4.60;1.00;;;;;;5228107;27;38538;-82
2024/04/22 01:37:05;;;;;;;9.63;4.27;;;4.60;2.60;;;;;;5254615;27;40014;-82
2024/04/22 01:39:34;;;;;;;7.47;4.27;;;4.60;4.90;;;;;;5230591;27;48979;-81
2024/04/22 01:42:00;;;;;;;7.07;4.23;;;4.60;13.50;;;;;;5224643;27;38451;-82
2024/04/22 01:44:29;;;;;;;5.80;4.00;;;4.50;14.80;;;;;;5205715;27;37898;-81
2024/04/22 01:47:06;;;;;;;7.67;4.07;;;4.50;18.70;;;;;;5220736;27;39444;-81
2024/04/22 01:49:41;;;;;;;5.63;4.20;;;4.40;25.70;;;;;;5231698;27;50561;-81
2024/04/22 01:52:13;;;;;;;7.13;4.30;;;4.40;33.10;;;;;;5184029;27;38788;-81
2024/04/22 01:55:07;;;;;;;6.32;4.50;;;4.40;33.40;;;;;;5228782;27;36522;-80
2024/04/22 01:57:33;;;;;;;7.00;4.63;;;4.30;35.40;;;;;;5143781;27;48286;-81
2024/04/22 02:00:09;;;;;;;6.23;4.40;;;4.20;36.60;;;;;;5186746;27;38237;-81
2024/04/22 02:02:36;;;;;;;5.70;4.17;;;4.20;40.00;;;;;;5217607;27;39616;-82
2024/04/22 02:05:13;;;;;;;6.83;4.23;;;4.20;40.50;;;;;;5203345;27;37411;-82
2024/04/22 02:07:53;;;;;;;5.90;4.23;;;4.20;43.00;;;;;;5258496;27;49584;-81
2024/04/22 02:10:21;;;;;;;7.90;4.73;;;4.30;41.60;;;;;;5188646;27;38607;-82
2024/04/22 02:13:04;;;;;;;5.87;4.60;;;4.30;39.60;;;;;;5252748;27;39554;-81
2024/04/22 02:15:41;;;;;;;8.17;3.90;;;4.30;35.10;;;;;;5193465;27;49023;-81
2024/04/22 02:18:12;;;;;;;7.53;3.80;;;4.20;30.40;;;;;;5230065;27;40006;-81
2024/04/22 02:20:53;;;;;;;11.93;4.07;;;4.30;25.80;;;;;;5200679;27;39867;-82
2024/04/22 02:23:45;;;;;;;6.77;3.60;;;4.30;14.30;;;;;;5209259;26;38198;-82
2024/04/22 02:26:15;;;;;;;8.60;3.83;;;4.40;3.40;;;;;;5213235;27;38484;-81
2024/04/22 02:28:56;;;;;;;6.30;3.60;;;4.40;1.00;;;;;;5228885;27;40156;-82
2024/04/22 02:31:36;;;;;;;4.87;3.10;;;4.40;1.00;;;;;;5210603;27;38503;-81
2024/04/22 02:34:22;;;;;;;3.60;3.13;;;4.40;1.00;;;;;;5188811;27;37917;-81
2024/04/22 02:37:08;;;;;;;5.83;3.40;;;4.40;1.00;;;;;;5188229;27;49232;-82
2024/04/22 02:40:10;;;;;;;6.23;3.40;;;4.50;1.00;;;;;;5196816;27;50056;-82
2024/04/22 02:42:56;;;;;;;4.90;3.13;;;4.40;1.00;;;;;;5216020;27;49285;-82
2024/04/22 02:46:07;;;;;;;4.20;3.23;;;4.40;1.00;;;;;;5189102;27;39469;-82
2024/04/22 02:48:34;;;;;;;5.07;3.10;;;4.30;1.00;;;;;;5229355;27;49110;-82
2024/04/22 02:51:11;;;;;;;7.50;3.50;;;4.40;1.00;;;;;;5189702;27;39659;-82
2024/04/22 02:53:39;;;;;;;4.57;3.20;;;4.40;1.00;;;;;;5139471;27;47781;-81
2024/04/22 02:56:06;;;;;;;7.27;3.07;;;4.40;1.00;;;;;;5223429;27;38484;-82
2024/04/22 02:58:35;;;;;;;7.73;3.70;;;4.50;1.00;;;;;;5226102;27;36715;-82
2024/04/22 03:01:05;;;;;;;5.87;3.10;;;4.50;1.00;;;;;;5257198;27;40212;-81
2024/04/22 03:03:33;;;;;;;8.47;3.17;;;4.50;1.00;;;;;;5252645;27;49664;-81
2024/04/22 03:06:00;;;;;;;8.03;3.40;;;4.50;1.00;;;;;;5230393;27;39799;-81
2024/04/22 03:08:28;;;;;;;9.17;3.70;;;4.50;1.00;;;;;;5247373;27;37696;-81
2024/04/22 03:10:58;;;;;;;4.90;3.20;;;4.50;1.00;;;;;;5218838;27;40297;-81
2024/04/22 03:13:25;;;;;;;4.63;3.30;;;4.60;1.00;;;;;;5218618;27;38448;-82
2024/04/22 03:15:53;;;;;;;7.33;3.27;;;4.60;1.00;;;;;;5259551;27;37649;-82
2024/04/22 03:18:20;;;;;;;7.30;3.20;;;4.60;1.00;;;;;;5223242;27;36651;-81
2024/04/22 03:20:48;;;;;;;9.10;3.20;;;4.60;1.00;;;;;;5246442;27;38577;-81
2024/04/22 03:23:22;;;;;;;5.20;2.87;;;4.70;1.00;;;;;;5261377;27;40161;-81
2024/04/22 03:25:48;;;;;;;10.50;2.80;;;4.70;1.00;;;;;;5216133;27;37701;-81
2024/04/22 03:28:15;;;;;;;5.83;2.50;;;4.70;1.00;;;;;;5215607;27;36943;-81
2024/04/22 03:30:41;;;;;;;10.00;3.23;;;4.80;1.00;;;;;;5262959;27;40156;-81
2024/04/22 03:33:08;;;;;;;8.40;2.20;;;4.80;1.00;;;;;;5230786;27;38946;-80
2024/04/22 03:35:34;;;;;;;7.20;2.03;;;4.90;1.00;;;;;;5224710;27;37990;-81
2024/04/22 03:38:02;;;;;;;9.47;2.70;;;4.90;1.00;;;;;;5250576;27;39022;-81
2024/04/22 03:40:33;;;;;;;4.80;2.37;;;5.00;1.00;;;;;;5230012;27;48796;-81
2024/04/22 03:43:00;;;;;;;7.43;1.70;;;5.00;1.00;;;;;;5226519;27;36891;-81
2024/04/22 03:45:28;;;;;;;8.67;2.10;;;5.00;1.00;;;;;;5251811;27;39677;-81
2024/04/22 03:50:47;;;;;;;8.33;2.20;;;5.00;1.00;;;;;;5222551;27;50244;-82
2024/04/22 03:53:19;;;;;;;4.77;2.00;;;5.10;1.00;;;;;;5217946;27;37248;-82
2024/04/22 03:55:45;;;;;;;6.38;1.85;;;5.10;1.00;;;;;;5263485;27;36569;-81
2024/04/22 03:58:13;;;;;;;8.50;1.87;;;5.10;1.00;;;;;;5195743;27;37517;-82
2024/04/22 04:00:41;;;;;;;5.87;2.13;;;5.20;1.00;;;;;;5168822;27;38435;-82
2024/04/22 04:03:08;;;;;;;3.93;2.03;;;5.20;1.00;;;;;;5256113;27;38848;-80
2024/04/22 04:05:35;;;;;;;6.47;2.30;;;5.30;1.00;;;;;;5264171;27;38940;-81
2024/04/22 04:08:02;;;;;;;7.03;2.03;;;5.30;1.00;;;;;;5229387;27;37288;-81
2024/04/22 04:10:34;;;;;;;4.07;1.80;;;5.30;1.00;;;;;;5252637;27;40423;-81
2024/04/22 04:13:00;;;;;;;15.40;2.22;;;5.40;1.00;;;;;;5235246;27;38575;-81
2024/04/22 04:15:49;;;;;;;6.97;1.87;;;5.40;1.00;;;;;;5242944;27;38180;-81
2024/04/22 04:18:16;;;;;;;6.73;2.53;;;5.40;1.00;;;;;;5226391;27;36838;-80
2024/04/22 04:20:43;;;;;;;8.53;2.30;;;5.40;1.00;;;;;;5240084;27;40307;-82
2024/04/22 04:23:11;;;;;;;4.43;2.10;;;5.40;1.00;;;;;;5215312;27;38159;-81
2024/04/22 04:25:39;;;;;;;10.50;2.30;;;5.40;1.00;;;;;;5231600;27;38608;-82
2024/04/22 04:28:07;;;;;;;5.23;2.30;;;5.40;1.00;;;;;;5237178;27;37641;-81
2024/04/22 04:30:35;;;;;;;6.17;2.30;;;5.40;1.00;;;;;;5234723;27;41908;-82
2024/04/22 04:33:02;;;;;;;6.33;2.30;;;5.40;1.00;;;;;;5200319;27;38094;-81
2024/04/22 04:35:31;;;;;;;6.93;2.23;;;5.40;1.00;;;;;;5222406;27;49522;-81
2024/04/22 04:38:02;;;;;;;4.20;2.57;;;5.40;1.00;;;;;;5229322;27;35693;-81
2024/04/22 04:40:30;;;;;;;9.53;3.03;;;5.30;1.00;;;;;;5215940;27;50517;-79
2024/04/22 04:42:56;;;;;;;8.20;2.97;;;5.30;1.00;;;;;;5256945;27;38977;-81
2024/04/22 04:45:25;;;;;;;8.33;2.47;;;5.30;1.00;;;;;;5253342;27;40263;-80
2024/04/22 04:47:54;;;;;;;10.70;3.07;;;5.30;1.00;;;;;;5258971;27;38805;-80
2024/04/22 04:50:21;;;;;;;5.83;1.90;;;5.20;1.00;;;;;;5223395;27;41341;-80
2024/04/22 04:52:50;;;;;;;9.13;2.50;;;5.20;1.00;;;;;;5231756;27;38846;-80
2024/04/22 04:55:18;;;;;;;8.73;2.23;;;5.20;1.00;;;;;;5252998;27;38266;-81
2024/04/22 04:57:48;;;;;;;9.70;3.00;;;5.20;1.00;;;;;;5261260;27;38665;-79
2024/04/22 05:00:19;;;;;;;8.50;2.83;;;5.10;1.00;;;;;;5263408;26;40393;-81
2024/04/22 05:02:45;;;;;;;7.97;2.30;;;5.10;1.00;;;;;;5236178;27;39143;-81
2024/04/22 05:05:24;;;;;;;11.00;2.50;;;5.10;1.00;;;;;;5216424;27;39549;-82
2024/04/22 05:08:03;;;;;;;7.37;2.07;;;5.10;1.00;;;;;;5172979;27;36749;-80
2024/04/22 05:10:33;;;;;;;4.87;1.67;;;5.10;1.00;;;;;;5235170;27;37993;-80
2024/04/22 05:13:02;;;;;;;8.60;1.90;;;5.10;1.00;;;;;;5224454;27;38777;-82
2024/04/22 05:15:31;;;;;;;9.00;2.00;;;5.10;1.00;;;;;;5266266;27;49510;-82
2024/04/22 05:17:57;;;;;;;13.50;2.43;;;5.20;1.00;;;;;;5252766;27;37724;-81
2024/04/22 05:20:25;;;;;;;8.30;2.20;;;5.20;1.00;;;;;;5259314;27;37887;-81
2024/04/22 05:23:18;;;;;;;12.60;2.60;;;5.30;1.00;;;;;;5242656;27;39498;-82
2024/04/22 05:26:06;;;;;;;7.30;2.57;;;5.30;1.00;;;;;;5214126;26;39414;-82
2024/04/22 05:28:59;;;;;;;12.23;3.03;;;5.40;1.00;;;;;;5152503;27;49002;-82
2024/04/22 05:31:34;;;;;;;7.32;2.70;;;5.50;1.00;;;;;;5178913;27;40339;-82
2024/04/22 05:40:24;;;;;;;7.90;3.03;;;5.60;1.00;;;;;;5161181;27;38968;-82
2024/04/22 05:43:02;;;;;;;10.13;3.00;;;5.60;1.00;;;;;;5218609;27;40915;-80
2024/04/22 05:45:32;;;;;;;8.93;2.73;;;5.70;1.00;;;;;;5172591;27;49201;-82
2024/04/22 05:48:09;;;;;;;7.77;3.00;;;5.80;1.00;;;;;;5182719;27;36990;-81
2024/04/22 05:50:38;;;;;;;9.73;2.90;;;5.90;1.00;;;;;;5240773;26;50235;-81
2024/04/22 05:53:04;;;;;;;8.70;2.40;;;6.00;1.00;;;;;;5208509;27;37593;-77
2024/04/22 05:55:30;;;;;;;3.77;1.90;;;6.00;1.00;;;;;;5196523;27;38023;-76
2024/04/22 05:57:56;;;;;;;6.00;2.30;;;6.10;1.00;;;;;;5195613;27;35565;-78
2024/04/22 06:00:31;;;;;;;9.73;2.37;;;6.10;1.00;;;;;;5186592;27;38156;-82
2024/04/22 06:03:24;;;;;;;12.50;2.87;;;6.20;1.00;;;;;;5224423;27;42625;-82
2024/04/22 06:06:21;;;;;;;11.57;2.23;;;6.30;1.00;;;;;;5302329;22;50151;-83
2024/04/22 06:08:49;;;;;;;8.23;2.57;;;6.30;1.00;;;;;;5251857;27;49538;-83
2024/04/22 06:11:30;;;;;;;8.73;3.17;;;6.40;1.00;;;;;;5229664;27;38605;-83
2024/04/22 06:13:57;;;;;;;12.33;2.43;;;6.40;1.00;;;;;;5207830;27;39087;-82
2024/04/22 06:16:26;;;;;;;5.27;2.10;;;6.50;1.00;;;;;;5208356;27;38253;-82
2024/04/22 06:18:55;;;;;;;6.30;2.30;;;6.60;1.00;;;;;;5188249;27;38731;-81
2024/04/22 06:21:29;;;;;;;4.27;2.03;;;6.70;1.00;;;;;;5211613;27;36134;-81
2024/04/22 06:24:24;;;;;;;5.23;2.33;;;6.70;1.00;;;;;;5199111;27;39817;-82
2024/04/22 06:27:02;;;;;;;6.80;2.07;;;6.80;1.00;;;;;;5204452;27;47730;-81
2024/04/22 06:29:50;;;;;;;7.17;2.97;;;6.90;1.00;;;;;;5189658;27;50050;-83
2024/04/22 06:32:35;;;;;;;10.37;2.53;;;7.00;1.00;;;;;;5243976;27;38232;-82
2024/04/22 06:35:08;;;;;;;11.50;2.22;;;7.10;1.00;;;;;;5195185;27;40838;-81
2024/04/22 06:37:39;;;;;;;9.93;2.30;;;7.10;1.00;;;;;;5241844;27;50426;-82
2024/04/22 06:40:21;;;;;;;7.80;2.20;;;7.10;1.00;;;;;;5213268;27;37397;-82
2024/04/22 06:43:12;;;;;;;7.47;2.93;;;7.20;1.00;;;;;;5164853;27;38539;-81
2024/04/22 06:45:46;;;;;;;7.43;2.70;;;7.30;1.00;;;;;;5235464;27;50305;-81
2024/04/22 06:48:33;;;;;;;14.93;2.77;;;7.20;1.00;;;;;;5376768;22;20128;-80
2024/04/22 06:51:08;;;;;;;11.17;2.23;;;7.20;1.00;;;;;;5193306;27;38547;-84
2024/04/22 06:54:33;;;;;;;7.87;2.17;;;7.10;1.00;;;;;;5144061;27;51778;-83
2024/04/22 06:57:34;;;;;;;7.53;2.00;;;7.10;1.00;;;;;;5712395;22;50318;-83
2024/04/22 07:00:32;;;;;;;7.13;2.65;;;7.00;1.00;;;;;;5224013;27;39841;-83
2024/04/22 07:03:15;;;;;;;12.13;2.13;;;7.00;1.00;;;;;;5169542;27;50678;-83
2024/04/22 07:12:52;;;;;;;10.23;2.00;;;7.30;1.00;;;;;;5175201;27;40012;-83
2024/04/22 07:18:26;;;;;;;6.00;2.50;;;7.70;1.00;;;;;;4962336;25;19950;-82
2024/04/22 07:20:55;;;;;;;5.23;2.40;;;8.10;1.00;;;;;;5247981;27;41499;-83
2024/04/22 07:23:30;;;;;;;5.97;1.83;;;8.20;99.90;;;;;;5223355;27;39062;-84
2024/04/22 07:26:15;;;;;;;6.70;1.90;;;8.20;99.90;;;;;;5198435;27;38769;-84
2024/04/22 07:29:10;;;;;;;6.17;1.93;;;8.30;99.90;;;;;;5196415;27;49816;-83
2024/04/22 07:31:53;;;;;;;3.87;1.70;;;8.50;99.90;;;;;;5156979;27;50503;-82
2024/04/22 07:34:19;;;;;;;8.77;2.37;;;8.80;99.90;;;;;;5232111;27;40098;-81
2024/04/22 07:36:52;;;;;;;7.27;1.80;;;9.00;1.50;;;;;;5217851;27;38493;-81
2024/04/22 07:39:25;;;;;;;;;;;9.20;1.00;;;;;;5241075;27;37425;-81
2024/04/22 07:41:58;;;;;;;10.27;1.58;;;9.30;99.90;;;;;;5225641;27;39358;-81
2024/04/22 07:44:27;;;;;;;8.20;2.00;;;9.60;99.90;;;;;;5244222;27;39626;-81
2024/04/22 07:46:57;;;;;;;10.83;2.07;;;9.70;1.00;;;;;;5215039;27;38136;-81
2024/04/22 07:49:37;;;;;;;6.22;1.50;;;9.80;1.00;;;;;;5218675;27;35701;-81
2024/04/22 07:52:09;;;;;;;10.77;2.37;;;10.00;99.90;;;;;;5237111;27;40241;-81
2024/04/22 07:55:04;;;;;;;5.18;1.48;;;10.10;1.00;;;;;;5246825;27;37967;-81
2024/04/22 07:58:05;;;;;;;6.73;1.70;;;10.00;1.00;;;;;;5222786;27;50913;-83
2024/04/22 08:01:13;;;;;;;7.47;1.90;;;10.00;99.90;;;;;;5185622;27;49140;-82
2024/04/22 08:03:56;;;;;;;6.60;1.65;;;10.10;99.90;;;;;;5070480;28;50371;-82
2024/04/22 08:06:30;;;;;;;7.38;2.03;;;10.20;1.00;;;;;;5185996;27;38182;-78
2024/04/22 08:09:03;;;;;;;6.50;1.73;;;10.00;91.70;;;;;;5181593;27;37773;-81
2024/04/22 08:11:45;;;;;;;;;;;;;;;;;;;;;
2024/04/22 08:16:53;;;;;;;7.85;1.65;;;10.30;1.00;;;;;;5328053;22;20076;-82
2024/04/22 08:19:58;;;;;;;4.33;1.67;;;10.30;1.00;;;;;;5200378;27;39466;-83
2024/04/22 08:22:49;;;;;;;5.50;1.38;;;10.10;99.90;;;;;;5221870;27;38800;-84
2024/04/22 08:25:21;;;;;;;7.10;1.85;;;10.00;1.00;;;;;;5179161;27;38871;-80
2024/04/22 08:27:50;;;;;;;8.13;1.65;;;10.20;99.90;;;;;;5164990;27;37851;-83
2024/04/22 08:30:22;;;;;;;4.55;1.77;;;10.30;99.90;;;;;;5149041;27;38545;-81
2024/04/22 08:48:30;;;;;;;5.15;1.27;;;11.30;99.90;;;;;;5856526;22;20012;-84
2024/04/22 08:51:09;;;;;;;9.73;1.38;;;11.30;90.30;;;;;;5189978;27;37423;-83
2024/04/22 08:54:05;;;;;;;5.20;1.55;;;11.20;1.00;;;;;;5200588;27;50553;-82
2024/04/22 08:57:04;;;;;;;2.78;1.20;;;11.20;1.00;;;;;;5184320;27;50402;-83
2024/04/22 08:59:50;;;;;;;3.35;1.20;;;11.60;1.00;;;;;;5215904;27;47139;-83
2024/04/22 09:02:21;;;;;;;4.35;1.10;;;11.60;1.00;;;;;;5227781;27;36001;-85
2024/04/22 09:07:27;;;;;;;4.28;1.23;;;11.60;99.90;;;;;;5292020;22;20003;-84
2024/04/22 09:10:14;;;;;;;4.00;1.10;;;11.70;99.90;;;;;;5212163;27;37999;-81
2024/04/22 09:17:57;;;;;;;7.20;2.30;;;11.80;1.00;;;;;;5505911;22;20040;-83
2024/04/22 09:20:40;;;;;;;5.20;1.10;;;11.90;1.00;;;;;;5234519;27;38840;-83
2024/04/22 09:23:22;;;;;;;6.07;1.63;;;11.70;90.00;;;;;;5222399;27;37997;-82
2024/04/22 09:28:39;;;;;;;5.82;1.25;;;11.30;99.90;;;;;;5814993;22;20039;-83
2024/04/22 09:31:11;;;;;;;5.78;1.48;;;11.40;1.00;;;;;;5396961;22;36091;-81
2024/04/22 09:34:03;;;;;;;4.60;1.10;;;11.50;99.90;;;;;;5223244;27;36733;-85
2024/04/22 09:36:39;;;;;;;6.03;1.73;;;11.60;1.00;;;;;;5260923;27;48446;-83
2024/04/22 09:39:17;;;;;;;6.65;1.95;;;11.70;99.90;;;;;;5222686;27;40516;-81
2024/04/22 09:41:48;;;;;;;3.13;1.30;;;11.80;99.90;;;;;;5238027;27;38443;-83
2024/04/22 09:44:35;;;;;;;4.05;1.45;;;11.90;99.90;;;;;;5219772;27;38364;-83
2024/04/22 09:47:04;;;;;;;8.07;2.20;;;11.90;99.90;;;;;;5239443;27;37621;-83
2024/04/22 09:49:40;;;;;;;5.03;1.63;;;11.80;99.90;;;;;;5191993;27;49050;-82
2024/04/22 09:52:08;;;;;;;10.80;1.85;;;11.80;1.00;;;;;;5214266;27;38393;-82
2024/04/22 09:54:36;;;;;;;2.65;1.60;;;11.90;1.00;;;;;;5245492;27;37136;-83
2024/04/22 09:57:18;;;;;;;4.15;1.70;;;11.80;99.90;;;;;;5215609;27;37370;-82
2024/04/22 10:00:12;;;;;;;6.45;1.67;;;11.60;99.90;;;;;;5223142;27;38710;-82
2024/04/22 10:02:49;;;;;;;5.90;1.65;;;11.40;1.00;;;;;;5257565;27;38210;-81
2024/04/22 10:05:21;;;;;;;4.03;1.48;;;11.60;99.90;;;;;;5219125;27;36081;-80
2024/04/22 10:07:57;;;;;;;9.63;1.60;;;11.70;1.00;;;;;;5205786;27;37208;-82
2024/04/22 10:10:45;;;;;;;6.93;1.23;;;11.70;1.00;;;;;;5195010;27;37673;-83
2024/04/22 10:13:14;;;;;;;2.45;1.38;;;11.70;1.00;;;;;;5252372;22;36129;-81
2024/04/22 10:15:41;;;;;;;4.05;1.45;;;11.80;99.90;;;;;;5186166;27;37454;-80
2024/04/22 10:18:15;;;;;;;4.18;1.63;;;11.90;99.90;;;;;;5205380;27;38467;-80
2024/04/22 10:20:49;;;;;;;7.10;1.70;;;11.80;99.90;;;;;;5523867;22;40189;-81
2024/04/22 10:26:40;;;;;;;5.95;1.40;;;12.10;99.90;;;;;;5316392;22;20027;-84
2024/04/22 10:29:09;;;;;;;4.82;1.35;;;12.30;1.00;;;;;;5255670;22;38811;-82
2024/04/22 10:31:54;;;;;;;2.05;1.10;;;12.70;35.20;;;;;;5240269;27;39308;-81
2024/04/22 10:34:43;;;;;;;6.00;1.77;;;12.60;1.00;;;;;;5169248;27;38583;-82
2024/04/22 10:37:11;;;;;;;4.00;1.63;;;12.10;1.00;;;;;;5228120;27;38440;-82
2024/04/22 10:39:48;;;;;;;2.55;1.23;;;12.00;1.00;;;;;;5252026;27;38493;-82
2024/04/22 10:42:48;;;;;;;4.72;1.50;;;11.90;1.00;;;;;;5223035;27;35577;-81
2024/04/22 10:45:19;;;;;;;2.72;1.10;;;11.90;1.00;;;;;;5235292;27;39764;-82
2024/04/22 10:52:00;;;;;;;;;;;;;;;;;;;;;
2024/04/22 10:54:35;;;;;;;4.93;1.23;;;11.80;1.00;;;;;;5194532;27;50909;-82
2024/04/22 10:57:16;;;;;;;1.77;1.33;;;11.60;1.00;;;;;;5217443;27;39113;-82
2024/04/22 11:00:00;;;;;;;2.53;1.10;;;11.30;1.00;;;;;;5199864;27;38159;-81
2024/04/22 11:02:38;;;;;;;3.25;1.20;;;11.20;1.00;;;;;;5208696;27;37846;-82
2024/04/22 11:05:35;;;;;;;4.45;1.27;;;11.30;1.00;;;;;;5204645;27;39238;-83
2024/04/22 11:10:55;;;;;;;5.93;1.50;;;11.20;78.70;;;;;;5587473;22;21100;-83
2024/04/22 11:13:31;;;;;;;4.97;1.65;;;11.00;99.90;;;;;;5200026;27;39121;-82
2024/04/22 11:24:56;;;;;;;6.20;2.17;;;10.70;1.00;;;;;;5164247;27;49068;-81
2024/04/22 11:27:49;;;;;;;3.78;1.23;;;11.50;1.00;;;;;;5200697;27;38993;-83
2024/04/22 11:33:26;;;;;;;2.55;1.13;;;12.70;1.00;;;;;;5799777;22;20036;-82
2024/04/22 11:36:12;;;;;;;4.07;1.20;;;12.60;1.00;;;;;;5193071;27;48922;-82
2024/04/22 11:38:55;;;;;;;5.45;1.38;;;12.70;1.00;;;;;;5227811;27;49313;-82
2024/04/22 12:10:51;;;;;;;2.97;1.35;;;11.60;1.00;;;;;;6239235;22;20034;31
2024/04/22 12:13:38;;;;;;;4.82;1.40;;;11.50;1.00;;;;;;5075283;27;36970;-83
2024/04/22 12:16:26;;;;;;;4.75;1.27;;;11.60;1.00;;;;;;5030702;28;39864;-81
2024/04/22 12:19:01;;;;;;;3.28;1.05;;;11.60;1.00;;;;;;5043262;28;49344;-82
2024/04/22 12:21:34;;;;;;;2.55;1.10;;;11.90;1.00;;;;;;5065723;28;48249;-82
2024/04/22 12:24:30;;;;;;;4.90;1.30;;;12.20;1.00;;;;;;5087809;28;38433;-81
2024/04/22 12:30:09;;;;;;;5.43;1.45;;;13.50;1.00;;;;;;5750875;22;20012;-81
2024/04/22 12:32:50;;;;;;;2.63;1.20;;;13.80;99.90;;;;;;5153265;27;38079;-80
2024/04/22 12:35:17;;;;;;;3.83;1.10;;;13.90;1.00;;;;;;5128373;27;37155;-80
2024/04/22 12:37:46;;;;;;;3.22;1.30;;;13.90;1.00;;;;;;5271385;22;37665;-80
2024/04/22 12:40:17;;;;;;;2.72;1.33;;;13.20;1.00;;;;;;5114111;27;38129;-81
2024/04/22 12:43:18;;;;;;;3.70;1.38;;;12.60;1.00;;;;;;5124520;27;38150;-80
2024/04/22 12:46:07;;;;;;;5.40;1.30;;;12.00;1.00;;;;;;5122993;27;49057;-81
2024/04/22 12:51:19;;;;;;;7.05;1.83;;;11.00;1.00;;;;;;5117710;27;39403;-81
2024/04/22 12:53:53;;;;;;;3.97;1.75;;;10.90;99.90;;;;;;5076544;27;36854;-83
2024/04/22 12:56:25;;;;;;;5.75;1.85;;;10.60;1.00;;;;;;5118645;27;36331;-81
2024/04/22 12:58:53;;;;;;;4.32;2.00;;;10.30;1.00;;;;;;5130289;27;39338;-79
2024/04/22 13:01:19;;;;;;;5.78;2.10;;;10.00;1.00;;;;;;5116596;27;39061;-79
2024/04/22 13:03:47;;;;;;;4.03;2.03;;;10.00;99.90;;;;;;5111389;27;38298;-80
2024/04/22 13:06:18;;;;;;;4.25;2.05;;;10.10;99.90;;;;;;5116175;27;36696;-80
2024/04/22 13:08:48;;;;;;;4.32;1.70;;;10.10;99.90;;;;;;5107229;27;37390;-81
2024/04/22 13:11:22;;;;;;;4.93;1.90;;;10.20;1.00;;;;;;5076559;27;37355;-81
2024/04/22 13:14:14;;;;;;;4.97;1.50;;;10.20;1.00;;;;;;5142565;27;38011;-81
2024/04/22 13:16:51;;;;;;;4.50;1.98;;;10.40;1.00;;;;;;5115804;27;48828;-80
2024/04/22 13:19:29;;;;;;;2.58;1.27;;;10.70;1.00;;;;;;5116012;27;39395;-80
2024/04/22 13:22:06;;;;;;;3.75;1.30;;;11.00;1.00;;;;;;5150034;27;40429;-80
2024/04/22 13:24:35;;;;;;;1.80;1.20;;;11.20;1.00;;;;;;5110604;27;49998;-82
2024/04/22 13:27:07;;;;;;;4.15;1.60;;;11.40;99.90;;;;;;5123159;27;36471;-82
2024/04/22 13:30:02;;;;;;;2.08;1.35;;;11.50;1.00;;;;;;5094326;27;49913;-82
2024/04/22 13:32:30;;;;;;;2.80;1.42;;;11.70;99.90;;;;;;5097761;27;37725;-81
2024/04/22 13:34:56;;;;;;;1.83;1.60;;;11.90;99.90;;;;;;5082025;27;38073;-80
2024/04/22 13:37:22;;;;;;;2.75;1.70;;;12.10;1.00;;;;;;5089456;27;37737;-79
2024/04/22 13:39:50;;;;;;;2.22;1.35;;;12.50;1.00;;;;;;5093910;27;39892;-80
2024/04/22 13:42:21;;;;;;;2.28;1.50;;;12.70;1.00;;;;;;5109032;27;37069;-82
2024/04/22 13:45:07;;;;;;;3.05;1.83;;;12.90;1.00;;;;;;5325930;22;35921;-80
2024/04/22 13:48:16;;;;;;;3.78;1.77;;;13.30;1.00;;;;;;5118118;27;48493;-79
2024/04/22 13:51:38;;;;;;;4.45;2.38;;;13.50;1.00;;;;;;5131591;27;49840;-83
2024/04/22 14:00:12;;;;;;;4.80;2.70;;;11.90;1.00;;;;;;5592509;22;50802;-82
2024/04/22 14:02:53;;;;;;;5.28;2.65;;;11.00;1.00;;;;;;5120113;27;41001;-82
2024/04/22 14:05:40;;;;;;;4.40;2.80;;;10.20;1.00;;;;;;5174392;27;39285;-82
2024/04/22 14:13:55;;;;;;;4.35;2.63;;;9.60;1.00;;;;;;4436409;25;20018;-80
2024/04/22 14:16:32;;;;;;;3.97;2.42;;;9.80;99.90;;;;;;5152195;27;50587;-79
2024/04/22 14:18:58;;;;;;;6.65;2.58;;;9.90;1.00;;;;;;5120224;27;37914;-80
2024/04/22 14:21:26;;;;;;;3.95;2.50;;;10.00;7.00;;;;;;5127600;27;37017;-81
2024/04/22 14:23:54;;;;;;;6.30;2.60;;;10.00;1.00;;;;;;5123410;27;40219;-81
2024/04/22 14:26:21;;;;;;;4.78;2.83;;;10.00;99.90;;;;;;5118160;27;37016;-80
2024/04/22 14:28:58;;;;;;;4.57;2.43;;;9.90;99.90;;;;;;5126404;27;37822;-80
2024/04/22 14:31:30;;;;;;;2.85;2.38;;;9.80;1.00;;;;;;5155925;27;36900;-81
2024/04/22 14:34:03;;;;;;;3.22;2.45;;;9.70;75.70;;;;;;5129957;27;36358;-80
2024/04/22 14:36:29;;;;;;;4.90;2.65;;;9.60;1.00;;;;;;5106932;27;48594;-80
2024/04/22 14:38:55;;;;;;;4.50;2.73;;;9.50;1.00;;;;;;5114623;27;35929;-78
2024/04/22 14:41:30;;;;;;;4.23;1.97;;;9.50;99.90;;;;;;5123053;27;35873;-80
2024/04/22 14:43:57;;;;;;;2.30;2.00;;;9.50;1.00;;;;;;5120455;27;39329;-79
2024/04/22 14:46:24;;;;;;;5.30;2.00;;;9.50;1.00;;;;;;5103158;27;38254;-79
2024/04/22 14:48:51;;;;;;;5.20;2.17;;;9.50;1.00;;;;;;5131028;27;38551;-79
2024/04/22 14:51:17;;;;;;;4.30;1.83;;;9.50;1.00;;;;;;5131823;27;38184;-79
2024/04/22 14:53:45;;;;;;;3.50;1.67;;;9.50;1.00;;;;;;5126894;27;37386;-79
2024/04/22 14:56:11;;;;;;;5.00;1.70;;;9.50;1.00;;;;;;5116057;27;39752;-80
2024/04/22 14:58:37;;;;;;;3.60;1.60;;;9.50;99.90;;;;;;5105401;27;37170;-79
2024/04/22 15:01:04;;;;;;;3.20;1.83;;;9.60;99.90;;;;;;5103203;27;37725;-80
2024/04/22 15:03:39;;;;;;;3.17;1.73;;;9.60;99.90;;;;;;5143583;27;39065;-80
2024/04/22 15:06:16;;;;;;;3.77;1.73;;;9.60;99.90;;;;;;5595838;22;37106;-81
2024/04/22 15:08:42;;;;;;;2.83;1.73;;;9.80;99.90;;;;;;5129453;27;36410;-79
2024/04/22 15:11:18;;;;;;;3.90;1.73;;;9.90;99.90;;;;;;5166084;27;38626;-81
2024/04/22 15:13:45;;;;;;;4.20;1.85;;;10.00;1.00;;;;;;5144111;27;37842;-80
2024/04/22 15:16:13;;;;;;;5.95;1.60;;;10.10;18.40;;;;;;5148765;27;39320;-80
2024/04/22 15:18:40;;;;;;;4.47;1.75;;;10.10;1.00;;;;;;5142832;27;36562;-78
2024/04/22 15:21:06;;;;;;;2.17;1.70;;;10.20;1.00;;;;;;5172865;27;39675;-78
2024/04/22 15:23:35;;;;;;;2.42;1.50;;;10.10;1.00;;;;;;5174101;27;38674;-79
2024/04/22 15:26:03;;;;;;;2.47;1.50;;;10.10;1.00;;;;;;5157458;27;37771;-79
2024/04/22 15:28:29;;;;;;;4.38;1.88;;;10.10;1.00;;;;;;5149387;27;48793;-80
2024/04/22 15:30:55;;;;;;;2.53;1.50;;;10.20;1.00;;;;;;5186960;27;37891;-79
2024/04/22 15:33:23;;;;;;;2.58;1.40;;;10.40;1.00;;;;;;5148709;27;37549;-78
2024/04/22 15:35:49;;;;;;;4.22;1.40;;;10.50;1.00;;;;;;5399275;22;37249;-80
2024/04/22 15:38:15;;;;;;;3.28;1.63;;;10.50;1.00;;;;;;5154363;27;36965;-78
2024/04/22 15:40:43;;;;;;;2.35;1.55;;;10.40;1.00;;;;;;5154981;27;36176;-80
2024/04/22 15:43:09;;;;;;;2.75;1.15;;;10.30;1.00;;;;;;5153817;27;37786;-80
2024/04/22 15:49:03;;;;;;;6.82;2.25;;;10.30;99.90;;;;;;4951115;28;48328;-78
2024/04/22 15:51:31;;;;;;;2.88;1.50;;;10.40;99.90;;;;;;5126278;27;37095;-79
2024/04/22 15:53:57;;;;;;;3.53;1.33;;;10.30;99.90;;;;;;5146004;27;37913;-80
2024/04/22 15:56:25;;;;;;;3.65;1.35;;;10.30;99.90;;;;;;5176368;27;39179;-79
2024/04/22 15:58:51;;;;;;;2.08;0.93;;;10.20;99.90;;;;;;5161841;27;38491;-80
2024/04/22 16:01:17;;;;;;;11.57;3.45;;;10.30;99.90;;;;;;5194162;27;37609;-80
2024/04/22 16:03:45;;;;;;;2.63;0.90;;;10.50;99.90;;;;;;5162365;27;39257;-80
2024/04/22 16:06:11;;;;;;;4.45;1.02;;;10.70;99.90;;;;;;5152505;27;38078;-80
2024/04/22 16:08:37;;;;;;;3.42;1.20;;;10.80;99.90;;;;;;5145418;27;37178;-81
2024/04/22 16:11:03;;;;;;;2.45;1.13;;;10.80;99.90;;;;;;5179283;27;39021;-79
2024/04/22 16:13:29;;;;;;;1.38;0.88;;;10.80;99.90;;;;;;5143643;27;36124;-80
2024/04/22 16:15:56;;;;;;;3.08;0.98;;;10.70;30.10;;;;;;5155984;27;36994;-79
2024/04/22 16:18:22;;;;;;;4.47;1.27;;;10.60;96.80;;;;;;5159285;27;37480;-79
2024/04/22 16:20:49;;;;;;;2.28;0.90;;;10.60;88.40;;;;;;5162487;27;37589;-80
2024/04/22 16:23:19;;;;;;;1.58;0.80;;;10.60;99.90;;;;;;5152220;27;38088;-79
2024/04/22 16:25:46;;;;;;;4.50;1.08;;;10.50;1.00;;;;;;5169148;27;37505;-80
2024/04/22 16:28:12;;;;;;;3.92;1.00;;;10.30;1.00;;;;;;5152525;27;38831;-81
2024/04/22 16:30:39;;;;;;;1.27;1.10;;;10.30;1.00;;;;;;5197567;27;37412;-81
2024/04/22 16:33:05;;;;;;;2.53;1.20;;;10.20;1.00;;;;;;5197634;27;39816;-79
2024/04/22 16:35:31;;;;;;;3.60;1.17;;;10.00;1.00;;;;;;5154998;27;37224;-79
2024/04/22 16:37:59;;;;;;;1.53;1.30;;;10.00;1.00;;;;;;5187957;27;39469;-81
2024/04/22 16:40:31;;;;;;;4.20;1.30;;;10.10;34.70;;;;;;5169555;27;36951;-80
2024/04/22 16:42:59;;;;;;;3.25;1.20;;;10.20;97.80;;;;;;5191605;27;39794;-79